Terminal Aerodrome Forecast
Issued by NWS

Home | Current Version | Previous Version | Text Only | Print | Product List | Glossary On
Versions: 1 2 3 4 5 6 7 8 9 10 11 12 13 14 15 16 17 18
000
FTUS42 KMLB 221700
TAFSFB
TAF
KSFB 221720Z 2218/2318 34007KT P6SM SCT250
     FM222100 02009KT P6SM SCT250
     FM230100 02005KT P6SM SCT250
     FM230600 35005KT P6SM SKC
     FM231400 03009KT P6SM SCT250=

USA.gov is the U.S. government's official web portal to all federal, state and local government web resources and services.